createdAt,value
2023-10-07T00:00:54.119Z,96453.13
2023-10-07T00:01:57.176Z,96446.84
2023-10-07T00:03:00.926Z,96446.06
2023-10-07T00:04:07.158Z,96444.84
2023-10-07T00:05:16.085Z,96447.59
2023-10-07T00:06:19.008Z,96444.84
2023-10-07T00:07:22.016Z,96447.59
2023-10-07T00:08:27.957Z,96451.13
2023-10-07T00:09:30.801Z,96440.56
2023-10-07T00:10:37.982Z,96447.59
2023-10-07T00:11:40.928Z,96447.59
2023-10-07T00:12:43.844Z,96440.56
2023-10-07T00:13:47.926Z,96446.84
2023-10-07T00:14:51.231Z,96447.59
2023-10-07T00:15:54.624Z,96440.09
2023-10-07T00:16:56.577Z,96440.56
2023-10-07T00:18:01.850Z,96439.75
2023-10-07T00:19:05.147Z,96446.06
2023-10-07T00:20:11.033Z,96446.06
2023-10-07T00:21:24.173Z,96444.50
2023-10-07T00:22:27.589Z,96442.97
2023-10-07T00:23:34.991Z,96443.75
2023-10-07T00:24:44.285Z,96445.75
2023-10-07T00:25:50.991Z,96445.75
2023-10-07T00:26:53.862Z,96446.94
2023-10-07T00:27:57.167Z,96442.19
2023-10-07T00:29:02.610Z,96442.19
2023-10-07T00:30:14.705Z,96441.41
2023-10-07T00:31:23.955Z,96444.19
2023-10-07T00:32:29.731Z,96439.13
2023-10-07T00:33:46.576Z,96445.41
2023-10-07T00:34:51.148Z,96443.84
2023-10-07T00:35:54.898Z,96443.09
2023-10-07T00:36:58.996Z,96456.13
2023-10-07T00:38:01.487Z,96440.31
2023-10-07T00:39:08.372Z,96447.06
2023-10-07T00:40:15.447Z,96442.31
2023-10-07T00:41:19.992Z,96449.50
2023-10-07T00:42:23.781Z,96445.97
2023-10-07T00:43:28.737Z,96449.50
2023-10-07T00:44:33.996Z,96449.50
2023-10-07T00:45:38.983Z,96452.69
2023-10-07T00:46:42.292Z,96462.22
2023-10-07T00:47:50.639Z,96444.84
2023-10-07T00:48:53.707Z,96453.94
2023-10-07T00:49:59.160Z,96449.59
2023-10-07T00:51:01.846Z,96453.59
2023-10-07T00:52:06.716Z,96459.13
2023-10-07T00:53:12.872Z,96452.84
2023-10-07T00:54:18.751Z,96463.09
2023-10-07T00:55:26.900Z,96456.03
2023-10-07T00:56:34.509Z,96456.03
2023-10-07T00:57:38.746Z,96455.25
2023-10-07T00:58:43.110Z,96454.47
2023-10-07T00:59:51.936Z,96455.69
2023-10-07T01:00:57.266Z,96458.44
2023-10-07T01:01:59.604Z,96454.94
2023-10-07T01:03:18.357Z,96447.41
2023-10-07T01:04:21.920Z,96451.41
2023-10-07T01:05:28.436Z,96449.84
2023-10-07T01:06:32.289Z,96449.84
2023-10-07T01:07:36.359Z,96453.81
2023-10-07T01:08:42.943Z,96445.22
2023-10-07T01:09:59.580Z,96450.72
2023-10-07T01:11:09.151Z,96449.16
2023-10-07T01:12:12.000Z,96444.88
2023-10-07T01:13:30.254Z,96443.31
2023-10-07T01:14:36.675Z,96450.06
2023-10-07T01:15:40.267Z,96444.53
2023-10-07T01:16:45.427Z,96441.44
2023-10-07T01:17:48.762Z,96439.91
2023-10-07T01:18:50.998Z,96443.09
2023-10-07T01:19:54.932Z,96441.56
2023-10-07T01:21:12.166Z,96440.78
2023-10-07T01:22:24.537Z,96440.00
2023-10-07T01:23:34.622Z,96437.69
2023-10-07T01:24:47.361Z,96447.19
2023-10-07T01:25:52.292Z,96448.84
2023-10-07T01:26:54.603Z,96439.47
2023-10-07T01:27:58.101Z,96443.44
2023-10-07T01:29:13.863Z,96440.34
2023-10-07T01:30:18.632Z,96448.31
2023-10-07T01:31:20.589Z,96443.56
2023-10-07T01:32:23.791Z,96441.22
2023-10-07T01:33:35.690Z,96442.00
2023-10-07T01:34:39.103Z,96445.97
2023-10-07T01:35:48.842Z,96452.25
2023-10-07T01:36:53.608Z,96439.69
2023-10-07T01:38:01.479Z,96446.41
2023-10-07T01:39:08.066Z,96447.63
2023-10-07T01:40:15.317Z,96442.13
2023-10-07T01:41:20.577Z,96440.56
2023-10-07T01:42:27.979Z,96446.53
2023-10-07T01:43:40.741Z,96440.69
2023-10-07T01:44:42.726Z,96443.88
2023-10-07T01:45:48.999Z,96443.88
2023-10-07T01:46:57.183Z,96436.03
2023-10-07T01:48:08.246Z,96439.25
2023-10-07T01:49:13.174Z,96439.25
2023-10-07T01:50:19.773Z,96441.66
2023-10-07T01:51:21.987Z,96437.34
2023-10-07T01:52:27.927Z,96446.50
2023-10-07T01:53:31.714Z,96437.03
2023-10-07T01:54:34.902Z,96441.00
2023-10-07T01:55:37.056Z,96436.25
2023-10-07T01:56:41.212Z,96428.44
2023-10-07T01:57:45.895Z,96437.91
2023-10-07T01:58:51.420Z,96430.84
2023-10-07T01:59:53.706Z,96440.31
2023-10-07T02:00:58.855Z,96438.78
2023-10-07T02:02:07.444Z,96431.72
2023-10-07T02:03:14.553Z,96437.22
2023-10-07T02:04:18.823Z,96436.47
2023-10-07T02:05:26.945Z,96438.13
2023-10-07T02:06:30.206Z,96438.13
2023-10-07T02:07:37.725Z,96442.09
2023-10-07T02:08:41.742Z,96447.28
2023-10-07T02:09:44.658Z,96444.50
2023-10-07T02:10:47.567Z,96441.41
2023-10-07T02:11:50.759Z,96441.41
2023-10-07T02:12:54.416Z,96442.31
2023-10-07T02:13:59.452Z,96447.81
2023-10-07T02:15:10.212Z,96451.00
2023-10-07T02:16:13.958Z,96446.25
2023-10-07T02:17:20.057Z,96443.16
2023-10-07T02:18:24.002Z,96437.66
2023-10-07T02:19:29.602Z,96447.88
2023-10-07T02:20:40.013Z,96442.03
2023-10-07T02:21:42.531Z,96443.25
2023-10-07T02:22:46.019Z,96442.47
2023-10-07T02:23:50.745Z,96447.97
2023-10-07T02:25:04.298Z,96440.94
2023-10-07T02:26:07.277Z,96444.44
2023-10-07T02:27:19.331Z,96439.38
2023-10-07T02:28:23.639Z,96443.34
2023-10-07T02:29:27.713Z,96440.25
2023-10-07T02:30:29.587Z,96445.75
2023-10-07T02:31:43.028Z,96446.97
2023-10-07T02:32:47.950Z,96438.72
2023-10-07T02:33:54.232Z,96448.53
2023-10-07T02:34:57.063Z,96441.47
2023-10-07T02:36:00.646Z,96444.22
2023-10-07T02:37:14.898Z,96442.66
2023-10-07T02:38:25.571Z,96439.56
2023-10-07T02:39:49.004Z,96444.31
2023-10-07T02:40:54.242Z,96449.06
2023-10-07T02:41:57.829Z,96451.81
2023-10-07T02:43:00.794Z,96447.50
2023-10-07T02:44:10.008Z,96446.72
2023-10-07T02:45:21.575Z,96443.22
2023-10-07T02:46:33.174Z,96448.72
2023-10-07T02:47:36.467Z,96440.44
2023-10-07T02:48:39.887Z,96441.69
2023-10-07T02:49:48.403Z,96445.63
2023-10-07T02:50:53.159Z,96444.09
2023-10-07T02:51:57.832Z,96442.53
2023-10-07T02:53:02.747Z,96439.78
2023-10-07T02:54:08.486Z,96443.75
2023-10-07T02:55:29.807Z,96443.00
2023-10-07T02:56:44.539Z,96444.94
2023-10-07T02:57:46.769Z,96450.91
2023-10-07T02:59:05.108Z,96443.41
2023-10-07T03:00:16.386Z,96445.41
2023-10-07T03:01:26.555Z,96455.63
2023-10-07T03:02:38.635Z,96454.09
2023-10-07T03:03:49.633Z,96447.06
2023-10-07T03:05:00.266Z,96453.34
2023-10-07T03:06:07.820Z,96456.53
2023-10-07T03:07:15.070Z,96451.44
2023-10-07T03:08:20.846Z,96456.19
2023-10-07T03:09:26.688Z,96454.66
2023-10-07T03:10:38.936Z,96452.31
2023-10-07T03:11:50.309Z,96461.00
2023-10-07T03:12:58.446Z,96462.22
2023-10-07T03:14:00.764Z,96459.47
2023-10-07T03:15:14.592Z,96455.19
2023-10-07T03:16:29.573Z,96465.06
2023-10-07T03:17:39.321Z,96463.88
2023-10-07T03:18:43.005Z,96458.78
2023-10-07T03:19:57.812Z,96459.56
2023-10-07T03:21:08.129Z,96468.28
2023-10-07T03:22:16.711Z,96458.44
2023-10-07T03:23:20.825Z,96463.97
2023-10-07T03:24:33.803Z,96453.81
2023-10-07T03:26:01.361Z,96456.22
2023-10-07T03:27:07.147Z,96461.41
2023-10-07T03:28:17.662Z,96464.16
2023-10-07T03:29:31.935Z,96461.41
2023-10-07T03:30:38.156Z,96459.09
2023-10-07T03:31:48.958Z,96457.13
2023-10-07T03:33:08.741Z,96466.56
2023-10-07T03:34:13.482Z,96464.28
2023-10-07T03:35:20.320Z,96464.69
2023-10-07T03:36:42.442Z,96465.91
2023-10-07T03:37:45.729Z,96474.19
2023-10-07T03:38:56.387Z,96465.13
2023-10-07T03:40:18.854Z,96474.59
2023-10-07T03:41:23.356Z,96468.31
2023-10-07T03:42:25.242Z,96472.28
2023-10-07T03:43:28.112Z,96474.69
2023-10-07T03:44:32.566Z,96470.75
2023-10-07T03:45:37.224Z,96469.97
2023-10-07T03:46:39.749Z,96466.88
2023-10-07T03:47:47.601Z,96472.38
2023-10-07T03:48:54.880Z,96476.34
2023-10-07T03:49:59.807Z,96477.97
2023-10-07T03:51:06.873Z,96477.97
2023-10-07T03:52:13.695Z,96470.94
2023-10-07T03:53:16.203Z,96468.19
2023-10-07T03:54:25.272Z,96476.44
2023-10-07T03:55:28.701Z,96474.44
2023-10-07T03:56:33.122Z,96470.94
2023-10-07T03:57:35.093Z,96473.69
2023-10-07T03:58:38.812Z,96470.25
2023-10-07T03:59:40.757Z,96470.66
2023-10-07T04:00:47.460Z,96467.16
2023-10-07T04:01:54.730Z,96471.88
2023-10-07T04:03:02.962Z,96472.66
2023-10-07T04:04:08.841Z,96469.13
2023-10-07T04:05:14.235Z,96465.59
2023-10-07T04:06:18.564Z,96472.31
2023-10-07T04:07:21.654Z,96466.44
2023-10-07T04:08:23.610Z,96466.44
2023-10-07T04:09:34.452Z,96470.44
2023-10-07T04:10:38.249Z,96464.91
2023-10-07T04:11:49.442Z,96467.66
2023-10-07T04:12:57.482Z,96466.44
2023-10-07T04:14:08.016Z,96468.88
2023-10-07T04:15:13.228Z,96470.84
2023-10-07T04:16:24.191Z,96468.88
2023-10-07T04:17:26.254Z,96467.31
2023-10-07T04:18:36.323Z,96465.75
2023-10-07T04:19:40.876Z,96467.31
2023-10-07T04:20:58.469Z,96465.75
2023-10-07T04:22:02.114Z,96469.75
2023-10-07T04:23:05.502Z,96471.72
2023-10-07T04:24:10.902Z,96469.75
2023-10-07T04:25:18.971Z,96468.97
2023-10-07T04:26:21.539Z,96466.63
2023-10-07T04:27:27.288Z,96468.63
2023-10-07T04:28:29.586Z,96468.63
2023-10-07T04:29:33.163Z,96471.38
2023-10-07T04:30:40.779Z,96466.63
2023-10-07T04:31:48.813Z,96466.63
2023-10-07T04:32:54.843Z,96470.63
2023-10-07T04:34:02.728Z,96466.63
2023-10-07T04:35:17.589Z,96473.38
2023-10-07T04:36:36.500Z,96469.03
2023-10-07T04:37:48.897Z,96477.31
2023-10-07T04:38:55.186Z,96476.53
2023-10-07T04:40:15.806Z,96471.81
2023-10-07T04:41:32.023Z,96479.28
2023-10-07T04:42:39.743Z,96473.03
2023-10-07T04:43:51.021Z,96474.56
2023-10-07T04:45:22.671Z,96464.75
2023-10-07T04:46:25.150Z,96465.94
2023-10-07T04:47:36.753Z,96469.16
2023-10-07T04:48:55.802Z,96466.81
2023-10-07T04:50:01.374Z,96472.31
2023-10-07T04:51:06.026Z,96472.31
2023-10-07T04:52:12.836Z,96479.47
2023-10-07T04:53:17.306Z,96474.75
2023-10-07T04:54:22.313Z,96473.97
2023-10-07T04:55:27.363Z,96471.63
2023-10-07T04:56:33.375Z,96477.16
2023-10-07T04:57:57.603Z,96474.84
2023-10-07T04:59:06.908Z,96472.50
2023-10-07T05:00:10.648Z,96471.75
2023-10-07T05:01:23.827Z,96472.50
2023-10-07T05:02:26.930Z,96469.41
2023-10-07T05:03:30.509Z,96468.63
2023-10-07T05:04:33.915Z,96465.88
2023-10-07T05:05:36.125Z,96458.06
2023-10-07T05:06:41.495Z,96467.19
2023-10-07T05:07:44.737Z,96461.66
2023-10-07T05:08:46.799Z,96472.69
2023-10-07T05:09:50.474Z,96469.16
2023-10-07T05:10:54.121Z,96468.03
2023-10-07T05:11:58.805Z,96468.38
2023-10-07T05:13:07.322Z,96457.81
2023-10-07T05:14:11.832Z,96466.84
2023-10-07T05:15:17.335Z,96464.09
2023-10-07T05:16:20.840Z,96474.31
2023-10-07T05:17:24.365Z,96465.72
2023-10-07T05:18:26.585Z,96472.00
2023-10-07T05:19:28.999Z,96466.50
2023-10-07T05:20:34.240Z,96464.16
2023-10-07T05:21:38.571Z,96466.91
2023-10-07T05:22:40.614Z,96466.91
2023-10-07T05:23:43.535Z,96465.38
2023-10-07T05:24:48.234Z,96468.91
2023-10-07T05:25:52.035Z,96468.91
2023-10-07T05:26:56.118Z,96475.16
2023-10-07T05:27:59.036Z,96475.16
2023-10-07T05:29:04.165Z,96474.41
2023-10-07T05:30:09.289Z,96478.38
2023-10-07T05:31:12.568Z,96468.13
2023-10-07T05:32:15.577Z,96467.34
2023-10-07T05:33:17.832Z,96469.31
2023-10-07T05:34:19.804Z,96475.63
2023-10-07T05:35:22.744Z,96486.63
2023-10-07T05:36:31.248Z,96490.91
2023-10-07T05:37:34.616Z,96494.88
2023-10-07T05:38:36.884Z,96496.44
2023-10-07T05:39:39.956Z,96502.34
2023-10-07T05:40:41.974Z,96495.31
2023-10-07T05:41:45.640Z,96498.06
2023-10-07T05:42:47.555Z,96502.81
2023-10-07T05:43:50.676Z,96497.28
2023-10-07T05:44:53.988Z,96502.03
2023-10-07T05:45:57.208Z,96498.94
2023-10-07T05:47:00.302Z,96501.69
2023-10-07T05:48:04.150Z,96504.44
2023-10-07T05:49:07.634Z,96496.56
2023-10-07T05:50:11.351Z,96498.09
2023-10-07T05:51:15.960Z,96496.56
2023-10-07T05:52:19.667Z,96493.03
2023-10-07T05:53:21.697Z,96494.22
2023-10-07T05:54:23.736Z,96509.13
2023-10-07T05:55:26.696Z,96499.31
2023-10-07T05:56:29.118Z,96494.59
2023-10-07T05:57:31.002Z,96502.81
2023-10-07T05:58:35.063Z,96506.25
2023-10-07T05:59:38.989Z,96498.25
2023-10-07T06:00:43.366Z,96499.19
2023-10-07T06:01:45.392Z,96502.56
2023-10-07T06:02:48.485Z,96509.00
2023-10-07T06:03:51.562Z,96513.09
2023-10-07T06:04:55.049Z,96513.72
2023-10-07T06:05:58.421Z,96512.41
2023-10-07T06:07:01.330Z,96511.53
2023-10-07T06:08:05.986Z,96515.00
2023-10-07T06:09:11.578Z,96510.47
2023-10-07T06:10:13.633Z,96511.09
2023-10-07T06:11:16.644Z,96509.66
2023-10-07T06:12:19.413Z,96505.94
2023-10-07T06:13:22.613Z,96510.06
2023-10-07T06:14:25.743Z,96512.63
2023-10-07T06:15:28.663Z,96512.47
2023-10-07T06:16:32.011Z,96506.72
2023-10-07T06:17:36.463Z,96507.75
2023-10-07T06:18:40.463Z,96513.06
2023-10-07T06:19:45.001Z,96507.00
2023-10-07T06:20:48.033Z,96511.53
2023-10-07T06:21:53.048Z,96509.03
2023-10-07T06:22:57.397Z,96505.72
2023-10-07T06:24:04.996Z,96508.25
2023-10-07T06:25:07.423Z,96508.94
2023-10-07T06:26:14.260Z,96509.56
2023-10-07T06:27:21.471Z,96507.47
2023-10-07T06:28:36.722Z,96509.69
2023-10-07T06:29:44.453Z,96506.41
2023-10-07T06:30:48.203Z,96512.56
2023-10-07T06:31:56.457Z,96512.47
2023-10-07T06:33:05.035Z,96514.78
2023-10-07T06:34:13.985Z,96519.50
2023-10-07T06:35:22.516Z,96515.66
2023-10-07T06:36:25.094Z,96507.94
2023-10-07T06:37:30.987Z,96504.50
2023-10-07T06:38:34.727Z,96512.13
2023-10-07T06:39:38.202Z,96513.91
2023-10-07T06:40:41.911Z,96513.22
2023-10-07T06:41:45.001Z,96509.44
2023-10-07T06:42:47.314Z,96506.91
2023-10-07T06:43:51.376Z,96512.97
2023-10-07T06:44:57.816Z,96512.75
2023-10-07T06:46:02.542Z,96510.22
2023-10-07T06:47:11.942Z,96507.53
2023-10-07T06:48:14.188Z,96509.63
2023-10-07T06:49:18.327Z,96500.66
2023-10-07T06:50:21.333Z,96504.66
2023-10-07T06:51:29.465Z,96497.25
2023-10-07T06:52:31.616Z,96502.44
2023-10-07T06:53:36.495Z,96502.09
2023-10-07T06:54:42.721Z,96495.03
2023-10-07T06:55:52.837Z,96494.72
2023-10-07T06:56:56.725Z,96493.16
2023-10-07T06:57:59.900Z,96497.47
2023-10-07T06:59:01.989Z,96495.19
2023-10-07T07:00:13.255Z,96499.88
2023-10-07T07:01:23.271Z,96499.09
2023-10-07T07:02:35.977Z,96505.41
2023-10-07T07:03:38.200Z,96506.94
2023-10-07T07:04:42.648Z,96509.69
2023-10-07T07:05:46.612Z,96514.03
2023-10-07T07:06:59.345Z,96508.50
2023-10-07T07:08:05.112Z,96504.53
2023-10-07T07:09:27.534Z,96507.28
2023-10-07T07:10:29.569Z,96501.75
2023-10-07T07:11:32.547Z,96497.78
2023-10-07T07:12:34.962Z,96502.88
2023-10-07T07:13:38.756Z,96500.88
2023-10-07T07:14:43.332Z,96499.69
2023-10-07T07:15:58.885Z,96497.25
2023-10-07T07:17:24.495Z,96495.69
2023-10-07T07:18:28.964Z,96511.72
2023-10-07T07:19:38.663Z,96509.28
2023-10-07T07:20:50.488Z,96514.38
2023-10-07T07:21:53.691Z,96514.72
2023-10-07T07:22:59.699Z,96511.84
2023-10-07T07:24:01.614Z,96514.09
2023-10-07T07:25:05.530Z,96517.06
2023-10-07T07:26:12.528Z,96524.69
2023-10-07T07:27:18.419Z,96528.00
2023-10-07T07:28:20.579Z,96520.63
2023-10-07T07:29:26.181Z,96515.22
2023-10-07T07:30:31.048Z,96514.13
2023-10-07T07:31:35.593Z,96524.50
2023-10-07T07:32:39.072Z,96521.84
2023-10-07T07:33:42.760Z,96519.63
2023-10-07T07:34:46.320Z,96516.66
2023-10-07T07:35:52.603Z,96524.72
2023-10-07T07:37:03.851Z,96509.91
2023-10-07T07:38:12.891Z,96517.94
2023-10-07T07:39:20.754Z,96509.88
2023-10-07T07:40:36.620Z,96512.06
2023-10-07T07:41:56.542Z,96508.72
2023-10-07T07:42:58.973Z,96516.47
2023-10-07T07:44:01.870Z,96514.81
2023-10-07T07:45:16.365Z,96515.91
2023-10-07T07:46:30.304Z,96514.56
2023-10-07T07:47:33.264Z,96511.34
2023-10-07T07:48:37.790Z,96518.75
2023-10-07T07:49:42.451Z,96512.00
2023-10-07T07:50:44.460Z,96528.59
2023-10-07T07:51:49.127Z,96524.63
2023-10-07T07:52:51.161Z,96525.38
2023-10-07T07:53:54.234Z,96526.91
2023-10-07T07:54:56.145Z,96532.00
2023-10-07T07:55:59.229Z,96527.69
2023-10-07T07:57:05.723Z,96530.00
2023-10-07T07:58:10.636Z,96526.59
2023-10-07T07:59:15.018Z,96536.31
2023-10-07T08:00:21.775Z,96531.09
2023-10-07T08:01:29.961Z,96536.63
2023-10-07T08:02:37.380Z,96539.28
2023-10-07T08:03:39.808Z,96545.59
2023-10-07T08:04:47.955Z,96553.44
2023-10-07T08:05:50.876Z,96554.22
2023-10-07T08:06:53.774Z,96551.78
2023-10-07T08:07:56.482Z,96554.06
2023-10-07T08:09:03.542Z,96551.31
2023-10-07T08:10:11.725Z,96557.97
2023-10-07T08:11:15.972Z,96551.19
2023-10-07T08:12:20.619Z,96549.97
2023-10-07T08:13:25.207Z,96547.19
2023-10-07T08:14:28.394Z,96548.75
2023-10-07T08:15:40.240Z,96550.28
2023-10-07T08:16:51.705Z,96542.78
2023-10-07T08:17:58.422Z,96547.53
2023-10-07T08:19:00.632Z,96552.63
2023-10-07T08:20:11.233Z,96546.66
2023-10-07T08:21:31.886Z,96546.31
2023-10-07T08:22:38.740Z,96545.09
2023-10-07T08:23:41.943Z,96541.88
2023-10-07T08:24:44.869Z,96548.19
2023-10-07T08:25:47.520Z,96542.63
2023-10-07T08:26:57.312Z,96539.44
2023-10-07T08:28:15.554Z,96540.19
2023-10-07T08:29:33.156Z,96542.97
2023-10-07T08:30:39.300Z,96541.72
2023-10-07T08:31:44.635Z,96542.97
2023-10-07T08:32:49.578Z,96553.13
2023-10-07T08:33:54.921Z,96546.06
2023-10-07T08:35:00.746Z,96544.81
2023-10-07T08:36:08.678Z,96541.28
2023-10-07T08:37:17.272Z,96537.75
2023-10-07T08:38:24.025Z,96534.56
2023-10-07T08:39:28.237Z,96536.09
2023-10-07T08:40:30.552Z,96538.09
2023-10-07T08:41:33.824Z,96539.63
2023-10-07T08:42:39.121Z,96538.41
2023-10-07T08:43:45.108Z,96532.88
2023-10-07T08:44:52.788Z,96528.88
2023-10-07T08:46:02.353Z,96523.97
2023-10-07T08:47:07.311Z,96536.41
2023-10-07T08:48:16.641Z,96537.50
2023-10-07T08:49:26.686Z,96537.09
2023-10-07T08:50:31.273Z,96532.31
2023-10-07T08:51:42.034Z,96539.84
2023-10-07T08:52:46.003Z,96543.03
2023-10-07T08:53:49.146Z,96533.97
2023-10-07T08:54:53.313Z,96530.44
2023-10-07T08:55:58.498Z,96528.09
2023-10-07T08:57:09.919Z,96532.41
2023-10-07T08:58:13.047Z,96537.19
2023-10-07T08:59:16.545Z,96527.34
2023-10-07T09:00:22.541Z,96533.66
2023-10-07T09:01:26.285Z,96527.78
2023-10-07T09:02:31.579Z,96532.88
2023-10-07T09:03:34.926Z,96528.09
2023-10-07T09:04:36.903Z,96529.78
2023-10-07T09:05:40.933Z,96528.22
2023-10-07T09:06:51.719Z,96532.56
2023-10-07T09:07:57.551Z,96532.09
2023-10-07T09:09:07.642Z,96532.09
2023-10-07T09:10:16.061Z,96522.56
2023-10-07T09:11:21.049Z,96524.91
2023-10-07T09:12:31.314Z,96519.25
2023-10-07T09:13:34.329Z,96527.50
2023-10-07T09:14:37.861Z,96524.31
2023-10-07T09:15:43.467Z,96525.16
2023-10-07T09:16:47.962Z,96519.22
2023-10-07T09:17:50.225Z,96524.03
2023-10-07T09:18:57.144Z,96529.59
2023-10-07T09:20:00.234Z,96532.09
2023-10-07T09:21:10.154Z,96530.72
2023-10-07T09:22:16.623Z,96529.03
2023-10-07T09:23:22.973Z,96534.28
2023-10-07T09:24:25.562Z,96528.13
2023-10-07T09:25:32.695Z,96524.38
2023-10-07T09:26:35.290Z,96522.53
2023-10-07T09:27:38.982Z,96519.13
2023-10-07T09:28:45.754Z,96526.78
2023-10-07T09:29:52.956Z,96529.25
2023-10-07T09:30:56.548Z,96529.41
2023-10-07T09:32:05.690Z,96522.28
2023-10-07T09:33:14.475Z,96523.22
2023-10-07T09:34:31.801Z,96523.97
2023-10-07T09:35:36.802Z,96522.75
2023-10-07T09:36:41.547Z,96523.84
2023-10-07T09:37:46.795Z,96524.63
2023-10-07T09:38:49.759Z,96514.31
2023-10-07T09:40:19.799Z,96520.63
2023-10-07T09:41:25.609Z,96515.06
2023-10-07T09:42:27.798Z,96521.38
2023-10-07T09:43:30.425Z,96519.72
2023-10-07T09:44:39.031Z,96514.94
2023-10-07T09:45:41.093Z,96514.78
2023-10-07T09:46:42.992Z,96508.03
2023-10-07T09:47:46.971Z,96515.13
2023-10-07T09:48:52.762Z,96513.13
2023-10-07T09:50:00.596Z,96512.34
2023-10-07T09:51:06.953Z,96508.38
2023-10-07T09:52:18.075Z,96507.13
2023-10-07T09:53:36.514Z,96502.34
2023-10-07T09:54:56.817Z,96507.13
2023-10-07T09:56:13.086Z,96509.16
2023-10-07T09:57:31.196Z,96509.97
2023-10-07T09:58:44.749Z,96520.94
2023-10-07T10:00:02.180Z,96506.75
2023-10-07T10:01:30.735Z,96502.91
2023-10-07T10:03:05.100Z,96501.03
2023-10-07T10:04:33.536Z,96499.94
2023-10-07T10:05:50.717Z,96496.41
2023-10-07T10:07:11.690Z,96490.53
2023-10-07T10:08:45.153Z,96496.09
2023-10-07T10:10:06.232Z,96500.84
2023-10-07T10:11:31.256Z,96494.88
2023-10-07T10:12:50.283Z,96488.25
2023-10-07T10:13:53.797Z,96491.94
2023-10-07T10:14:58.021Z,96490.44
2023-10-07T10:16:02.072Z,96491.53
2023-10-07T10:17:13.280Z,96492.75
2023-10-07T10:18:36.596Z,96492.75
2023-10-07T10:19:45.916Z,96495.00
2023-10-07T10:20:49.037Z,96494.81
2023-10-07T10:21:52.954Z,96498.38
2023-10-07T10:22:58.442Z,96501.00
2023-10-07T10:24:03.946Z,96493.44
2023-10-07T10:25:23.560Z,96497.78
2023-10-07T10:26:28.226Z,96497.63
2023-10-07T10:27:32.184Z,96495.16
2023-10-07T10:28:34.750Z,96499.03
2023-10-07T10:29:53.476Z,96491.78
2023-10-07T10:30:57.171Z,96494.09
2023-10-07T10:32:08.786Z,96498.72
2023-10-07T10:33:21.137Z,96493.16
2023-10-07T10:34:24.381Z,96502.41
2023-10-07T10:35:26.634Z,96500.59
2023-10-07T10:36:29.972Z,96500.13
2023-10-07T10:37:33.248Z,96496.13
2023-10-07T10:38:36.548Z,96501.19
2023-10-07T10:39:42.556Z,96505.53
2023-10-07T10:40:47.078Z,96502.91
2023-10-07T10:41:50.825Z,96493.38
2023-10-07T10:42:52.769Z,96494.13
2023-10-07T10:44:07.704Z,96500.13
2023-10-07T10:45:19.077Z,96488.72
2023-10-07T10:46:22.574Z,96497.34
2023-10-07T10:47:25.679Z,96495.66
2023-10-07T10:48:28.367Z,96491.34
2023-10-07T10:49:32.948Z,96491.97
2023-10-07T10:50:35.307Z,96485.19
2023-10-07T10:51:38.271Z,96491.22
2023-10-07T10:52:40.954Z,96496.28
2023-10-07T10:53:47.915Z,96488.28
2023-10-07T10:54:51.168Z,96491.38
2023-10-07T10:55:55.234Z,96490.91
2023-10-07T10:56:59.242Z,96494.28
2023-10-07T10:58:02.146Z,96491.06
2023-10-07T10:59:04.137Z,96479.19
2023-10-07T11:00:20.572Z,96487.06
2023-10-07T11:01:24.082Z,96482.72
2023-10-07T11:02:27.269Z,96489.34
2023-10-07T11:03:29.360Z,96480.28
2023-10-07T11:04:33.062Z,96485.81
2023-10-07T11:05:36.166Z,96483.03
2023-10-07T11:06:38.553Z,96483.81
2023-10-07T11:07:41.971Z,96480.28
2023-10-07T11:08:44.043Z,96471.19
2023-10-07T11:09:49.742Z,96471.19
2023-10-07T11:10:54.854Z,96474.84
2023-10-07T11:11:58.693Z,96467.03
2023-10-07T11:13:09.227Z,96467.34
2023-10-07T11:14:14.615Z,96470.41
2023-10-07T11:15:16.937Z,96465.94
2023-10-07T11:16:20.335Z,96469.47
2023-10-07T11:17:23.552Z,96465.16
2023-10-07T11:18:29.259Z,96472.72
2023-10-07T11:19:31.435Z,96465.78
2023-10-07T11:20:35.120Z,96464.56
2023-10-07T11:21:42.964Z,96467.34
2023-10-07T11:22:46.902Z,96462.09
2023-10-07T11:23:50.472Z,96455.31
2023-10-07T11:24:53.612Z,96456.56
2023-10-07T11:25:57.408Z,96448.38
2023-10-07T11:27:02.066Z,96461.47
2023-10-07T11:28:10.274Z,96460.72
2023-10-07T11:29:14.682Z,96455.16
2023-10-07T11:30:17.068Z,96457.44
2023-10-07T11:31:29.572Z,96459.78
2023-10-07T11:32:32.493Z,96459.78
2023-10-07T11:33:36.147Z,96463.75
2023-10-07T11:34:39.996Z,96447.91
2023-10-07T11:35:43.360Z,96453.47
2023-10-07T11:36:46.455Z,96459.00
2023-10-07T11:37:50.779Z,96461.78
2023-10-07T11:38:54.124Z,96459.00
2023-10-07T11:39:57.142Z,96455.75
2023-10-07T11:41:01.386Z,96456.53
2023-10-07T11:42:03.478Z,96455.94
2023-10-07T11:43:09.398Z,96458.38
2023-10-07T11:44:17.928Z,96457.31
2023-10-07T11:45:23.449Z,96466.41
2023-10-07T11:46:26.235Z,96466.72
2023-10-07T11:47:29.394Z,96465.47
2023-10-07T11:48:31.971Z,96469.03
2023-10-07T11:49:35.873Z,96466.25
2023-10-07T11:50:37.816Z,96464.56
2023-10-07T11:51:41.744Z,96465.78
2023-10-07T11:52:44.313Z,96471.31
2023-10-07T11:53:47.428Z,96470.09
2023-10-07T11:54:50.393Z,96474.09
2023-10-07T11:55:53.478Z,96474.41
2023-10-07T11:56:57.004Z,96473.63
2023-10-07T11:58:00.692Z,96476.88
2023-10-07T11:59:03.905Z,96475.66
2023-10-07T12:00:14.791Z,96479.19
2023-10-07T12:01:21.340Z,96479.19
2023-10-07T12:02:24.991Z,96472.88
2023-10-07T12:03:27.201Z,96476.09
2023-10-07T12:04:30.148Z,96464.25
2023-10-07T12:05:32.609Z,96466.72
2023-10-07T12:06:35.914Z,96467.66
2023-10-07T12:07:38.039Z,96461.28
2023-10-07T12:08:41.073Z,96464.25
2023-10-07T12:09:47.990Z,96462.69
2023-10-07T12:10:51.610Z,96455.16
2023-10-07T12:11:54.856Z,96454.06
2023-10-07T12:12:59.762Z,96456.81
2023-10-07T12:14:02.687Z,96451.28
2023-10-07T12:15:09.090Z,96444.97
2023-10-07T12:16:12.107Z,96452.06
2023-10-07T12:17:17.880Z,96440.19
2023-10-07T12:18:20.663Z,96445.72
2023-10-07T12:19:26.053Z,96451.28
2023-10-07T12:20:29.762Z,96444.19
2023-10-07T12:21:36.100Z,96451.28
2023-10-07T12:22:40.204Z,96449.31
2023-10-07T12:23:45.999Z,96447.91
2023-10-07T12:24:47.962Z,96444.66
2023-10-07T12:25:51.340Z,96451.91
2023-10-07T12:26:53.358Z,96447.59
2023-10-07T12:27:57.793Z,96459.31
2023-10-07T12:29:02.039Z,96459.31
2023-10-07T12:30:05.948Z,96456.25
2023-10-07T12:32:45.095Z,96453.78
2023-10-07T12:33:47.260Z,96458.53
2023-10-07T12:34:50.378Z,96457.44
2023-10-07T12:35:52.296Z,96456.25
2023-10-07T12:36:58.317Z,96458.69
2023-10-07T12:38:01.362Z,96458.69
2023-10-07T12:39:11.542Z,96463.47
2023-10-07T12:40:14.609Z,96465.00
2023-10-07T12:41:18.638Z,96464.25
2023-10-07T12:42:20.913Z,96465.47
2023-10-07T12:43:24.201Z,96471.81
2023-10-07T12:44:28.505Z,96467.34
2023-10-07T12:45:32.163Z,96471.31
2023-10-07T12:46:34.236Z,96472.88
2023-10-07T12:47:38.736Z,96475.34
2023-10-07T12:48:41.719Z,96469.78
2023-10-07T12:49:46.741Z,96475.34
2023-10-07T12:50:51.073Z,96465.78
2023-10-07T12:51:55.039Z,96471.31
2023-10-07T12:52:58.438Z,96465.78
2023-10-07T12:54:01.828Z,96467.34
2023-10-07T12:55:04.411Z,96469.78
2023-10-07T12:56:19.132Z,96467.03
2023-10-07T12:57:21.619Z,96473.34
2023-10-07T12:58:28.185Z,96475.34
2023-10-07T12:59:36.724Z,96467.03
2023-10-07T13:00:39.880Z,96470.25
2023-10-07T13:01:42.128Z,96462.09